Time;durP1;ratioP1;P1;durP2;ratioP2;P2;SDS_P1;SDS_P2;PMS_P1;PMS_P2;Temp;Humidity;BMP_temperature;BMP_pressure;BME280_temperature;BME280_humidity;BME280_pressure;Samples;Min_cycle;Max_cycle;Signal;HPM_P1;HPM_P2
2022/04/05 00:01:51;;;;;;;;;;;;;;;;;;5073066;28;952;-67
2022/04/05 00:04:17;;;;;;;;;;;;;;;;;;5072851;28;1496;-66
2022/04/05 00:06:45;;;;;;;;;;;;;;;;;;5072280;28;1127;-67
2022/04/05 00:09:11;;;;;;;;;;;;;;;;;;5072346;28;1973;-69
2022/04/05 00:11:37;;;;;;;;;;;;;;;;;;5072705;28;846;-67
2022/04/05 00:14:03;;;;;;;;;;;;;;;;;;5072355;28;1304;-68
2022/04/05 00:16:29;;;;;;;;;;;;;;;;;;5072398;28;1201;-68
2022/04/05 00:18:56;;;;;;;;;;;;;;;;;;5072280;28;775;-68
2022/04/05 00:21:22;;;;;;;;;;;;;;;;;;5072065;28;925;-67
2022/04/05 00:23:50;;;;;;;;;;;;;;;;;;5072524;28;1411;-68
2022/04/05 00:26:16;;;;;;;;;;;;;;;;;;5072313;28;1116;-68
2022/04/05 00:28:42;;;;;;;;;;;;;;;;;;5072088;28;1965;-67
2022/04/05 00:31:08;;;;;;;;;;;;;;;;;;5072302;28;1075;-67
2022/04/05 00:33:34;;;;;;;;;;;;;;;;;;5071838;28;1325;-67
2022/04/05 00:36:00;;;;;;;;;;;;;;;;;;5072399;28;826;-66
2022/04/05 00:38:27;;;;;;;;;;;;;;;;;;5071728;28;944;-67
2022/04/05 00:40:54;;;;;;;;;;;;;;;;;;5071831;28;1154;-66
2022/04/05 00:43:20;;;;;;;;;;;;;;;;;;5071985;28;1311;-67
2022/04/05 00:45:46;;;;;;;;;;;;;;;;;;5071924;28;1115;-67
2022/04/05 00:48:13;;;;;;;;;;;;;;;;;;5071528;28;1922;-65
2022/04/05 00:50:39;;;;;;;;;;;;;;;;;;5070742;28;1459;-66
2022/04/05 00:53:07;;;;;;;;;;;;;;;;;;5071934;28;1277;-68
2022/04/05 00:55:34;;;;;;;;;;;;;;;;;;5071811;28;952;-65
2022/04/05 00:58:02;;;;;;;;;;;;;;;;;;5071476;28;1059;-67
2022/04/05 01:00:29;;;;;;;;;;;;;;;;;;5071814;28;1007;-68
2022/04/05 01:02:55;;;;;;;;;;;;;;;;;;5071620;28;1408;-69
2022/04/05 01:05:21;;;;;;;;;;;;;;;;;;5071144;28;1075;-70
2022/04/05 01:07:47;;;;;;;;;;;;;;;;;;5072730;28;1968;-68
2022/04/05 01:10:14;;;;;;;;;;;;;;;;;;5071281;28;1102;-67
2022/04/05 01:12:41;;;;;;;;;;;;;;;;;;5071645;28;1294;-67
2022/04/05 01:15:09;;;;;;;;;;;;;;;;;;5071356;28;929;-67
2022/04/05 01:17:35;;;;;;;;;;;;;;;;;;5052966;28;1238;-67
2022/04/05 01:20:02;;;;;;;;;;;;;;;;;;5071009;28;835;-68
2022/04/05 01:22:28;;;;;;;;;;;;;;;;;;5053299;28;1374;-68
2022/04/05 01:24:55;;;;;;;;;;;;;;;;;;5052941;28;1155;-69
2022/04/05 01:27:27;;;;;;;;;;;;;;;;;;5070701;28;786;-68
2022/04/05 01:29:53;;;;;;;;;;;;;;;;;;5071308;28;1913;-67
2022/04/05 01:32:19;;;;;;;;;;;;;;;;;;5071180;28;1364;-68
2022/04/05 01:34:45;;;;;;;;;;;;;;;;;;5070374;28;975;-68
2022/04/05 01:37:12;;;;;;;;;;;;;;;;;;5070940;28;1098;-66
2022/04/05 01:39:39;;;;;;;;;;;;;;;;;;5070935;28;849;-66
2022/04/05 01:42:07;;;;;;;;;;;;;;;;;;5070805;28;1079;-69
2022/04/05 01:44:34;;;;;;;;;;;;;;;;;;5070362;28;1304;-70
2022/04/05 01:47:03;;;;;;;;;;;;;;;;;;5070667;28;1118;-67
2022/04/05 01:49:29;;;;;;;;;;;;;;;;;;5071038;28;1914;-68
2022/04/05 01:51:55;;;;;;;;;;;;;;;;;;5070741;28;934;-67
2022/04/05 01:54:21;;;;;;;;;;;;;;;;;;5070639;28;1296;-67
2022/04/05 01:56:48;;;;;;;;;;;;;;;;;;5070072;28;1111;-65
2022/04/05 01:59:17;;;;;;;;;;;;;;;;;;5070754;28;1067;-67
2022/04/05 02:01:43;;;;;;;;;;;;;;;;;;5070342;28;1007;-67
2022/04/05 02:04:10;;;;;;;;;;;;;;;;;;5070435;28;1306;-68
2022/04/05 02:06:37;;;;;;;;;;;;;;;;;;5070215;28;866;-68
2022/04/05 02:09:04;;;;;;;;;;;;;;;;;;5070492;28;1965;-67
2022/04/05 02:11:30;;;;;;;;;;;;;;;;;;5052362;28;1331;-67
2022/04/05 02:14:02;;;;;;;;;;;;;;;;;;5052351;28;1388;-68
2022/04/05 02:16:30;;;;;;;;;;;;;;;;;;5052140;28;1213;-67
2022/04/05 02:18:57;;;;;;;;;;;;;;;;;;5052617;28;1030;-65
2022/04/05 02:21:24;;;;;;;;;;;;;;;;;;5070176;28;850;-67
2022/04/05 02:23:51;;;;;;;;;;;;;;;;;;5052524;28;1348;-67
2022/04/05 02:26:23;;;;;;;;;;;;;;;;;;5051693;28;1547;-68
2022/04/05 02:28:52;;;;;;;;;;;;;;;;;;5052645;28;1956;-67
2022/04/05 02:31:22;;;;;;;;;;;;;;;;;;5052391;28;1491;-67
2022/04/05 02:33:52;;;;;;;;;;;;;;;;;;5052146;28;1382;-67
2022/04/05 02:36:27;;;;;;;;;;;;;;;;;;5052235;28;1133;-67
2022/04/05 02:38:55;;;;;;;;;;;;;;;;;;5070217;28;845;-69
2022/04/05 02:41:24;;;;;;;;;;;;;;;;;;5052225;28;1487;-68
2022/04/05 02:43:51;;;;;;;;;;;;;;;;;;5052321;28;1333;-67
2022/04/05 02:46:19;;;;;;;;;;;;;;;;;;5070051;28;774;-68
2022/04/05 02:48:48;;;;;;;;;;;;;;;;;;5052007;28;1914;-66
2022/04/05 02:51:23;;;;;;;;;;;;;;;;;;5052280;28;1276;-67
2022/04/05 02:53:51;;;;;;;;;;;;;;;;;;5051587;28;1429;-68
2022/04/05 02:56:18;;;;;;;;;;;;;;;;;;5069761;28;825;-65
2022/04/05 02:58:47;;;;;;;;;;;;;;;;;;5051856;28;1356;-67
2022/04/05 03:01:14;;;;;;;;;;;;;;;;;;5051629;28;1495;-67
2022/04/05 03:03:41;;;;;;;;;;;;;;;;;;5051333;28;1440;-67
2022/04/05 03:06:10;;;;;;;;;;;;;;;;;;5051906;28;1382;-68
2022/04/05 03:08:39;;;;;;;;;;;;;;;;;;5048877;28;2045;-67
2022/04/05 03:11:08;;;;;;;;;;;;;;;;;;5050507;28;1292;-68
2022/04/05 03:13:34;;;;;;;;;;;;;;;;;;5051693;28;1460;-68
2022/04/05 03:16:00;;;;;;;;;;;;;;;;;;5051896;28;1219;-67
2022/04/05 03:18:28;;;;;;;;;;;;;;;;;;5051662;28;1224;-69
2022/04/05 03:20:54;;;;;;;;;;;;;;;;;;5069901;28;782;-69
2022/04/05 03:23:21;;;;;;;;;;;;;;;;;;5069904;28;1247;-68
2022/04/05 03:25:49;;;;;;;;;;;;;;;;;;5051849;28;1565;-68
2022/04/05 03:28:20;;;;;;;;;;;;;;;;;;5051748;28;1961;-67
2022/04/05 03:30:48;;;;;;;;;;;;;;;;;;5055562;28;1183;-67
2022/04/05 03:33:15;;;;;;;;;;;;;;;;;;5055400;28;1298;-67
2022/04/05 03:35:42;;;;;;;;;;;;;;;;;;5055497;28;1304;-67
2022/04/05 03:38:09;;;;;;;;;;;;;;;;;;5054156;28;1761;-67
2022/04/05 03:40:36;;;;;;;;;;;;;;;;;;5054906;28;1090;-68
2022/04/05 03:43:12;;;;;;;;;;;;;;;;;;5054675;28;1463;-69
2022/04/05 03:45:38;;;;;;;;;;;;;;;;;;5055455;28;890;-69
2022/04/05 03:48:04;;;;;;;;;;;;;;;;;;5053971;28;1648;-69
2022/04/05 03:50:31;;;;;;;;;;;;;;;;;;5054685;28;1991;-67
2022/04/05 03:53:00;;;;;;;;;;;;;;;;;;5054729;28;1551;-67
2022/04/05 03:55:29;;;;;;;;;;;;;;;;;;5054451;28;1829;-67
2022/04/05 03:57:57;;;;;;;;;;;;;;;;;;5054007;28;1574;-67
2022/04/05 04:00:29;;;;;;;;;;;;;;;;;;5054778;28;1312;-66
2022/04/05 04:03:05;;;;;;;;;;;;;;;;;;5054595;28;1628;-68
2022/04/05 04:08:16;;;;;;;;;;;;;;;;;;4949466;28;2512;-66
2022/04/05 04:10:47;;;;;;;;;;;;;;;;;;4929006;29;1338;-67
2022/04/05 04:13:13;;;;;;;;;;;;;;;;;;4931988;29;1587;-67
2022/04/05 04:15:46;;;;;;;;;;;;;;;;;;4950482;29;2383;-67
2022/04/05 04:18:12;;;;;;;;;;;;;;;;;;4950141;28;1617;-68
2022/04/05 04:20:42;;;;;;;;;;;;;;;;;;4950145;29;1561;-67
2022/04/05 04:23:09;;;;;;;;;;;;;;;;;;4935368;29;1590;-67
2022/04/05 04:25:37;;;;;;;;;;;;;;;;;;4933082;29;1818;-67
2022/04/05 04:28:03;;;;;;;;;;;;;;;;;;4930306;29;1481;-68
2022/04/05 04:30:30;;;;;;;;;;;;;;;;;;4930492;29;1956;-68
2022/04/05 04:32:57;;;;;;;;;;;;;;;;;;4932105;29;879;-69
2022/04/05 04:35:23;;;;;;;;;;;;;;;;;;4932017;29;1103;-69
2022/04/05 04:37:50;;;;;;;;;;;;;;;;;;4931288;29;1376;-68
2022/04/05 04:40:16;;;;;;;;;;;;;;;;;;4930989;29;1080;-69
2022/04/05 04:42:42;;;;;;;;;;;;;;;;;;4931779;29;1203;-69
2022/04/05 04:45:09;;;;;;;;;;;;;;;;;;4932197;28;1048;-68
2022/04/05 04:47:35;;;;;;;;;;;;;;;;;;4931898;28;1303;-69
2022/04/05 04:50:03;;;;;;;;;;;;;;;;;;4934845;28;1972;-69
2022/04/05 04:52:29;;;;;;;;;;;;;;;;;;4941297;28;1246;-69
2022/04/05 04:54:55;;;;;;;;;;;;;;;;;;4939412;28;1299;-69
2022/04/05 04:57:23;;;;;;;;;;;;;;;;;;4950850;28;1535;-70
2022/04/05 04:59:49;;;;;;;;;;;;;;;;;;4945327;28;1230;-69
2022/04/05 05:02:16;;;;;;;;;;;;;;;;;;4940722;28;1278;-69
2022/04/05 05:04:42;;;;;;;;;;;;;;;;;;4941773;28;1629;-69
2022/04/05 05:07:09;;;;;;;;;;;;;;;;;;4933842;28;1379;-69
2022/04/05 05:09:36;;;;;;;;;;;;;;;;;;4942386;28;1919;-68
2022/04/05 05:12:02;;;;;;;;;;;;;;;;;;4932599;28;1314;-68
2022/04/05 05:14:30;;;;;;;;;;;;;;;;;;4938751;29;1136;-67
2022/04/05 05:16:56;;;;;;;;;;;;;;;;;;4941456;29;1466;-68
2022/04/05 05:19:22;;;;;;;;;;;;;;;;;;4940150;29;1232;-68
2022/04/05 05:21:49;;;;;;;;;;;;;;;;;;4946988;28;1263;-67
2022/04/05 05:24:16;;;;;;;;;;;;;;;;;;4950221;28;961;-68
2022/04/05 05:26:42;;;;;;;;;;;;;;;;;;4941532;28;1409;-68
2022/04/05 05:29:09;;;;;;;;;;;;;;;;;;4935433;28;2003;-67
2022/04/05 05:31:36;;;;;;;;;;;;;;;;;;4930492;29;1104;-67
2022/04/05 05:34:02;;;;;;;;;;;;;;;;;;4931184;28;1072;-67
2022/04/05 05:36:28;;;;;;;;;;;;;;;;;;4931200;29;1322;-67
2022/04/05 05:38:54;;;;;;;;;;;;;;;;;;4931660;29;954;-67
2022/04/05 05:41:22;;;;;;;;;;;;;;;;;;4931358;29;1151;-67
2022/04/05 05:43:48;;;;;;;;;;;;;;;;;;4930753;29;1164;-68
2022/04/05 05:46:14;;;;;;;;;;;;;;;;;;4930940;29;1295;-67
2022/04/05 05:48:41;;;;;;;;;;;;;;;;;;4931423;29;942;-67
2022/04/05 05:51:07;;;;;;;;;;;;;;;;;;4931425;28;1972;-67
2022/04/05 05:53:33;;;;;;;;;;;;;;;;;;4930532;29;1132;-68
2022/04/05 05:56:00;;;;;;;;;;;;;;;;;;4931040;29;1357;-67
2022/04/05 05:58:27;;;;;;;;;;;;;;;;;;4930973;28;1092;-67
2022/04/05 06:00:53;;;;;;;;;;;;;;;;;;4931167;29;1081;-67
2022/04/05 06:03:19;;;;;;;;;;;;;;;;;;4930717;29;1139;-67
2022/04/05 06:05:47;;;;;;;;;;;;;;;;;;4931054;29;1347;-67
2022/04/05 06:08:14;;;;;;;;;;;;;;;;;;4934153;28;1171;-68
2022/04/05 06:10:40;;;;;;;;;;;;;;;;;;4938864;28;1923;-67
2022/04/05 06:13:06;;;;;;;;;;;;;;;;;;4936124;28;1263;-67
2022/04/05 06:15:34;;;;;;;;;;;;;;;;;;4940213;29;1476;-67
2022/04/05 06:18:00;;;;;;;;;;;;;;;;;;4934472;28;1421;-68
2022/04/05 06:20:26;;;;;;;;;;;;;;;;;;4941904;29;1332;-68
2022/04/05 06:22:53;;;;;;;;;;;;;;;;;;4943923;28;1343;-67
2022/04/05 06:25:20;;;;;;;;;;;;;;;;;;4949453;28;1072;-68
2022/04/05 06:27:46;;;;;;;;;;;;;;;;;;4949347;28;1269;-67
2022/04/05 06:30:13;;;;;;;;;;;;;;;;;;4939662;29;1984;-68
2022/04/05 06:32:41;;;;;;;;;;;;;;;;;;4938205;29;1303;-67
2022/04/05 06:35:07;;;;;;;;;;;;;;;;;;4936639;28;1338;-68
2022/04/05 06:37:35;;;;;;;;;;;;;;;;;;4930450;28;1255;-67
2022/04/05 06:40:01;;;;;;;;;;;;;;;;;;4930461;28;1056;-68
2022/04/05 06:42:29;;;;;;;;;;;;;;;;;;4930667;28;953;-67
2022/04/05 06:44:55;;;;;;;;;;;;;;;;;;4930715;29;1123;-68
2022/04/05 06:47:21;;;;;;;;;;;;;;;;;;4929960;29;1273;-67
2022/04/05 06:49:49;;;;;;;;;;;;;;;;;;4930760;29;1919;-68
2022/04/05 06:52:15;;;;;;;;;;;;;;;;;;4930424;28;787;-67
2022/04/05 06:54:41;;;;;;;;;;;;;;;;;;4930544;28;1088;-68
2022/04/05 06:57:07;;;;;;;;;;;;;;;;;;4942783;28;1484;-68
2022/04/05 06:59:34;;;;;;;;;;;;;;;;;;4949395;29;662;-67
2022/04/05 07:02:00;;;;;;;;;;;;;;;;;;4949194;29;933;-68
2022/04/05 07:04:26;;;;;;;;;;;;;;;;;;4950987;29;1128;-68
2022/04/05 07:06:54;;;;;;;;;;;;;;;;;;4952166;28;1377;-67
2022/04/05 07:09:20;;;;;;;;;;;;;;;;;;4952841;29;1976;-67
2022/04/05 07:11:46;;;;;;;;;;;;;;;;;;4952962;28;678;-68
2022/04/05 07:14:12;;;;;;;;;;;;;;;;;;4952714;29;1110;-67
2022/04/05 07:16:38;;;;;;;;;;;;;;;;;;4951907;28;1301;-67
2022/04/05 07:19:04;;;;;;;;;;;;;;;;;;4952422;28;1064;-67
2022/04/05 07:21:31;;;;;;;;;;;;;;;;;;4952421;29;1448;-67
2022/04/05 07:23:58;;;;;;;;;;;;;;;;;;4952483;28;973;-68
2022/04/05 07:26:24;;;;;;;;;;;;;;;;;;4951919;28;1280;-67
2022/04/05 07:28:51;;;;;;;;;;;;;;;;;;4952527;29;879;-66
2022/04/05 07:31:17;;;;;;;;;;;;;;;;;;4952345;29;1915;-67
2022/04/05 07:33:43;;;;;;;;;;;;;;;;;;4952234;29;934;-67
2022/04/05 07:36:09;;;;;;;;;;;;;;;;;;4951487;28;1298;-66
2022/04/05 07:38:35;;;;;;;;;;;;;;;;;;4952665;28;855;-67
2022/04/05 07:41:03;;;;;;;;;;;;;;;;;;4952068;29;1076;-67
2022/04/05 07:43:29;;;;;;;;;;;;;;;;;;4951132;29;1162;-67
2022/04/05 07:45:56;;;;;;;;;;;;;;;;;;4951910;28;1292;-67
2022/04/05 07:48:23;;;;;;;;;;;;;;;;;;4952145;29;878;-68
2022/04/05 07:50:49;;;;;;;;;;;;;;;;;;4951808;28;1976;-67
2022/04/05 07:53:16;;;;;;;;;;;;;;;;;;4952192;29;1056;-67
2022/04/05 07:55:42;;;;;;;;;;;;;;;;;;4952017;28;1405;-66
2022/04/05 07:58:09;;;;;;;;;;;;;;;;;;4951627;29;779;-68
2022/04/05 08:00:36;;;;;;;;;;;;;;;;;;4952014;29;1126;-67
2022/04/05 08:03:02;;;;;;;;;;;;;;;;;;4951894;29;1131;-67
2022/04/05 08:05:28;;;;;;;;;;;;;;;;;;4951802;29;961;-67
2022/04/05 08:07:54;;;;;;;;;;;;;;;;;;4951349;28;1255;-68
2022/04/05 08:10:21;;;;;;;;;;;;;;;;;;4951448;29;1982;-68
2022/04/05 08:12:48;;;;;;;;;;;;;;;;;;4951904;29;1109;-67
2022/04/05 08:15:16;;;;;;;;;;;;;;;;;;4951144;29;1119;-67
2022/04/05 08:17:42;;;;;;;;;;;;;;;;;;4951555;28;1278;-68
2022/04/05 08:20:09;;;;;;;;;;;;;;;;;;4951641;29;815;-67
2022/04/05 08:22:35;;;;;;;;;;;;;;;;;;4951685;29;1055;-68
2022/04/05 08:25:01;;;;;;;;;;;;;;;;;;4950979;29;1306;-67
2022/04/05 08:27:27;;;;;;;;;;;;;;;;;;4951095;28;1387;-67
2022/04/05 08:29:54;;;;;;;;;;;;;;;;;;4951457;29;1985;-67
2022/04/05 08:32:21;;;;;;;;;;;;;;;;;;4951367;29;1146;-67
2022/04/05 08:34:48;;;;;;;;;;;;;;;;;;4951378;29;797;-66
2022/04/05 08:37:14;;;;;;;;;;;;;;;;;;4951225;28;1360;-67
2022/04/05 08:39:41;;;;;;;;;;;;;;;;;;4951177;29;914;-67
2022/04/05 08:42:08;;;;;;;;;;;;;;;;;;4951435;29;885;-68
2022/04/05 08:44:34;;;;;;;;;;;;;;;;;;4950944;29;1115;-68
2022/04/05 08:47:00;;;;;;;;;;;;;;;;;;4950850;28;1405;-69
2022/04/05 08:49:28;;;;;;;;;;;;;;;;;;4951178;29;933;-69
2022/04/05 08:51:54;;;;;;;;;;;;;;;;;;4950743;28;1923;-68
2022/04/05 08:54:21;;;;;;;;;;;;;;;;;;4948140;29;1651;-69
2022/04/05 08:56:47;;;;;;;;;;;;;;;;;;4950900;28;1313;-67
2022/04/05 08:59:13;;;;;;;;;;;;;;;;;;4950924;29;874;-69
2022/04/05 09:01:39;;;;;;;;;;;;;;;;;;4950722;28;779;-68
2022/04/05 09:04:06;;;;;;;;;;;;;;;;;;4950630;29;1072;-68
2022/04/05 09:06:33;;;;;;;;;;;;;;;;;;4950293;28;1369;-69
2022/04/05 09:09:06;;;;;;;;;;;;;;;;;;4950922;28;890;-69
2022/04/05 09:11:33;;;;;;;;;;;;;;;;;;4944337;28;2156;-68
2022/04/05 09:13:59;;;;;;;;;;;;;;;;;;4942356;29;1256;-68
2022/04/05 09:16:28;;;;;;;;;;;;;;;;;;4942235;28;1311;-69
2022/04/05 09:18:54;;;;;;;;;;;;;;;;;;4931975;29;1084;-68
2022/04/05 09:21:20;;;;;;;;;;;;;;;;;;4931614;29;795;-68
2022/04/05 09:23:52;;;;;;;;;;;;;;;;;;4932021;29;1060;-68
2022/04/05 09:26:18;;;;;;;;;;;;;;;;;;4931352;29;1340;-68
2022/04/05 09:28:45;;;;;;;;;;;;;;;;;;4932548;29;1154;-69
2022/04/05 09:31:12;;;;;;;;;;;;;;;;;;4932389;29;1978;-69
2022/04/05 09:33:38;;;;;;;;;;;;;;;;;;4943930;29;1200;-69
2022/04/05 09:36:15;;;;;;;;;;;;;;;;;;4950823;28;1361;-67
2022/04/05 09:38:42;;;;;;;;;;;;;;;;;;4950519;28;1052;-68
2022/04/05 09:41:11;;;;;;;;;;;;;;;;;;4950442;28;933;-69
2022/04/05 09:43:37;;;;;;;;;;;;;;;;;;4950340;28;937;-69
2022/04/05 09:46:04;;;;;;;;;;;;;;;;;;4950418;28;1290;-68
2022/04/05 09:48:31;;;;;;;;;;;;;;;;;;4950519;28;786;-69
2022/04/05 09:51:02;;;;;;;;;;;;;;;;;;4948535;29;1922;-69
2022/04/05 09:53:29;;;;;;;;;;;;;;;;;;4949949;28;882;-69
2022/04/05 09:56:05;;;;;;;;;;;;;;;;;;4950207;28;1333;-68
2022/04/05 09:58:32;;;;;;;;;;;;;;;;;;4948800;29;1205;-69
2022/04/05 10:01:06;;;;;;;;;;;;;;;;;;4950247;28;807;-68
2022/04/05 10:03:32;;;;;;;;;;;;;;;;;;4950632;28;1006;-69
2022/04/05 10:05:58;;;;;;;;;;;;;;;;;;4943357;28;1301;-69
2022/04/05 10:08:24;;;;;;;;;;;;;;;;;;4928181;29;1058;-68
2022/04/05 10:10:51;;;;;;;;;;;;;;;;;;4946865;29;2004;-69
2022/04/05 10:13:17;;;;;;;;;;;;;;;;;;4949528;28;889;-68
2022/04/05 10:15:47;;;;;;;;;;;;;;;;;;4948044;28;1434;-68
2022/04/05 10:18:13;;;;;;;;;;;;;;;;;;5096555;22;4019;-68
2022/04/05 10:20:39;;;;;;;;;;;;;;;;;;5048854;28;1126;-68
2022/04/05 10:23:05;;;;;;;;;;;;;;;;;;5049945;28;1146;-67
2022/04/05 10:25:31;;;;;;;;;;;;;;;;;;5050643;28;1083;-66
2022/04/05 10:27:58;;;;;;;;;;;;;;;;;;5049903;28;1313;-67
2022/04/05 10:30:26;;;;;;;;;;;;;;;;;;5050664;28;1923;-67
2022/04/05 10:32:55;;;;;;;;;;;;;;;;;;5050483;28;1071;-67
2022/04/05 10:35:22;;;;;;;;;;;;;;;;;;5050689;28;1063;-68
2022/04/05 10:37:48;;;;;;;;;;;;;;;;;;5052304;28;1319;-68
2022/04/05 10:40:17;;;;;;;;;;;;;;;;;;5055523;28;1510;-67
2022/04/05 10:42:44;;;;;;;;;;;;;;;;;;5056769;28;802;-68
2022/04/05 10:45:11;;;;;;;;;;;;;;;;;;5054636;28;1111;-67
2022/04/05 10:47:56;;;;;;;;;;;;;;;;;;5053368;28;1538;-68
2022/04/05 10:50:23;;;;;;;;;;;;;;;;;;5054556;28;854;-68
2022/04/05 10:52:54;;;;;;;;;;;;;;;;;;5054745;28;1980;-67
2022/04/05 10:55:20;;;;;;;;;;;;;;;;;;5052964;28;1904;-67
2022/04/05 10:57:46;;;;;;;;;;;;;;;;;;5052585;28;1292;-69
2022/04/05 11:00:14;;;;;;;;;;;;;;;;;;5054607;28;658;-67
2022/04/05 11:02:41;;;;;;;;;;;;;;;;;;5054085;28;731;-68
2022/04/05 11:05:32;;;;;;;;;;;;;;;;;;5053561;28;1147;-68
2022/04/05 11:08:10;;;;;;;;;;;;;;;;;;5033682;28;1409;-67
2022/04/05 11:10:48;;;;;;;;;;;;;;;;;;5034077;28;1910;-68
2022/04/05 11:13:14;;;;;;;;;;;;;;;;;;5034202;28;2124;-68
2022/04/05 11:15:41;;;;;;;;;;;;;;;;;;5034166;28;1060;-68
2022/04/05 11:18:08;;;;;;;;;;;;;;;;;;5033641;28;1398;-68
2022/04/05 11:20:36;;;;;;;;;;;;;;;;;;5015813;28;981;-67
2022/04/05 11:23:02;;;;;;;;;;;;;;;;;;5034264;28;926;-67
2022/04/05 11:25:29;;;;;;;;;;;;;;;;;;5033770;28;1064;-69
2022/04/05 11:27:56;;;;;;;;;;;;;;;;;;5033475;28;1403;-68
2022/04/05 11:30:37;;;;;;;;;;;;;;;;;;5033792;28;953;-67
2022/04/05 11:33:13;;;;;;;;;;;;;;;;;;5033897;28;1981;-68
2022/04/05 11:35:42;;;;;;;;;;;;;;;;;;5032697;28;779;-67
2022/04/05 11:38:12;;;;;;;;;;;;;;;;;;5031124;28;1328;-67
2022/04/05 11:40:40;;;;;;;;;;;;;;;;;;5031638;28;953;-67
2022/04/05 11:43:06;;;;;;;;;;;;;;;;;;5032069;28;740;-67
2022/04/05 11:45:33;;;;;;;;;;;;;;;;;;5031914;28;1107;-68
2022/04/05 11:47:59;;;;;;;;;;;;;;;;;;5031197;28;1336;-67
2022/04/05 11:50:25;;;;;;;;;;;;;;;;;;5031985;28;1115;-68
2022/04/05 11:52:53;;;;;;;;;;;;;;;;;;5033360;28;1918;-68
2022/04/05 11:58:03;;;;;;;;;;;;;;;;;;5015415;28;1415;-68
2022/04/05 12:00:29;;;;;;;;;;;;;;;;;;5033477;28;1116;-69
2022/04/05 12:03:01;;;;;;;;;;;;;;;;;;5033511;28;893;-68
2022/04/05 12:05:40;;;;;;;;;;;;;;;;;;5036241;28;1222;-68
2022/04/05 12:08:08;;;;;;;;;;;;;;;;;;5053046;28;1375;-68
2022/04/05 12:10:34;;;;;;;;;;;;;;;;;;5052539;28;1025;-69
2022/04/05 12:13:00;;;;;;;;;;;;;;;;;;5035224;28;1979;-68
2022/04/05 12:15:27;;;;;;;;;;;;;;;;;;5053199;28;1145;-68
2022/04/05 12:17:57;;;;;;;;;;;;;;;;;;5052260;28;1302;-68
2022/04/05 12:20:23;;;;;;;;;;;;;;;;;;5050094;28;1904;-68
2022/04/05 12:22:49;;;;;;;;;;;;;;;;;;5052942;28;1071;-68
2022/04/05 12:25:18;;;;;;;;;;;;;;;;;;5052727;28;798;-68
2022/04/05 12:27:53;;;;;;;;;;;;;;;;;;5052306;28;1288;-67
2022/04/05 12:30:27;;;;;;;;;;;;;;;;;;5052617;28;1055;-68
2022/04/05 12:32:53;;;;;;;;;;;;;;;;;;5052392;28;1914;-68
2022/04/05 12:35:20;;;;;;;;;;;;;;;;;;5052816;28;1141;-69
2022/04/05 12:37:47;;;;;;;;;;;;;;;;;;5052362;28;1404;-68
2022/04/05 12:40:24;;;;;;;;;;;;;;;;;;5052840;28;858;-68
2022/04/05 12:42:50;;;;;;;;;;;;;;;;;;5052115;28;1056;-67
2022/04/05 12:45:25;;;;;;;;;;;;;;;;;;5052307;28;1487;-68
2022/04/05 12:47:51;;;;;;;;;;;;;;;;;;5052133;28;1310;-67
2022/04/05 12:50:17;;;;;;;;;;;;;;;;;;5053191;28;1131;-70
2022/04/05 12:52:44;;;;;;;;;;;;;;;;;;5053066;28;1973;-67
2022/04/05 12:55:12;;;;;;;;;;;;;;;;;;5052428;28;822;-68
2022/04/05 12:57:40;;;;;;;;;;;;;;;;;;5051814;28;1347;-68
2022/04/05 13:00:10;;;;;;;;;;;;;;;;;;5052103;28;1068;-68
2022/04/05 13:02:37;;;;;;;;;;;;;;;;;;5050480;28;1084;-68
2022/04/05 13:07:51;;;;;;;;;;;;;;;;;;5030596;28;1356;-68
2022/04/05 13:10:18;;;;;;;;;;;;;;;;;;5032357;28;1134;-67
2022/04/05 13:12:45;;;;;;;;;;;;;;;;;;5031919;28;1910;-67
2022/04/05 13:15:12;;;;;;;;;;;;;;;;;;5032228;28;905;-67
2022/04/05 13:17:38;;;;;;;;;;;;;;;;;;5031515;28;1322;-68
2022/04/05 13:20:07;;;;;;;;;;;;;;;;;;5031859;28;1016;-68
2022/04/05 13:22:33;;;;;;;;;;;;;;;;;;5031503;28;961;-68
2022/04/05 13:24:59;;;;;;;;;;;;;;;;;;5032471;28;1052;-68
2022/04/05 13:27:25;;;;;;;;;;;;;;;;;;5033696;28;1330;-69
2022/04/05 13:29:53;;;;;;;;;;;;;;;;;;5033605;28;870;-69
2022/04/05 13:32:20;;;;;;;;;;;;;;;;;;5032844;28;2054;-68
2022/04/05 13:34:46;;;;;;;;;;;;;;;;;;5015211;28;1231;-67
2022/04/05 13:37:15;;;;;;;;;;;;;;;;;;5033584;28;1385;-67
2022/04/05 13:39:42;;;;;;;;;;;;;;;;;;5033072;28;1071;-68
2022/04/05 13:42:09;;;;;;;;;;;;;;;;;;5031848;28;1060;-68
2022/04/05 13:44:35;;;;;;;;;;;;;;;;;;5031903;28;918;-68
2022/04/05 13:47:03;;;;;;;;;;;;;;;;;;5031402;28;1321;-68
2022/04/05 13:49:29;;;;;;;;;;;;;;;;;;5013751;28;1193;-68
2022/04/05 13:51:57;;;;;;;;;;;;;;;;;;5031248;28;1973;-67
2022/04/05 13:54:23;;;;;;;;;;;;;;;;;;5031407;28;944;-68
2022/04/05 13:56:49;;;;;;;;;;;;;;;;;;5031020;28;1408;-67
2022/04/05 13:59:15;;;;;;;;;;;;;;;;;;5032617;28;1040;-68
2022/04/05 14:01:42;;;;;;;;;;;;;;;;;;5033704;28;893;-68
2022/04/05 14:04:09;;;;;;;;;;;;;;;;;;5033030;28;1044;-67
2022/04/05 14:06:36;;;;;;;;;;;;;;;;;;5043552;28;1329;-68
2022/04/05 14:09:02;;;;;;;;;;;;;;;;;;5050991;28;1071;-68
2022/04/05 14:11:29;;;;;;;;;;;;;;;;;;5049048;28;1227;-68
2022/04/05 14:13:55;;;;;;;;;;;;;;;;;;5050709;28;1980;-67
2022/04/05 14:16:21;;;;;;;;;;;;;;;;;;5050516;28;1332;-67
2022/04/05 14:18:48;;;;;;;;;;;;;;;;;;5050610;28;1122;-66
2022/04/05 14:21:16;;;;;;;;;;;;;;;;;;5050873;28;1107;-67
2022/04/05 14:23:43;;;;;;;;;;;;;;;;;;5032992;28;956;-67
2022/04/05 14:26:10;;;;;;;;;;;;;;;;;;5050605;28;1068;-66
2022/04/05 14:28:36;;;;;;;;;;;;;;;;;;5050529;28;1321;-67
2022/04/05 14:31:02;;;;;;;;;;;;;;;;;;5050221;28;921;-68
2022/04/05 14:33:28;;;;;;;;;;;;;;;;;;5050714;28;1910;-67
2022/04/05 14:35:55;;;;;;;;;;;;;;;;;;5050657;28;1067;-67
2022/04/05 14:38:22;;;;;;;;;;;;;;;;;;5049959;28;1546;-67
2022/04/05 14:40:48;;;;;;;;;;;;;;;;;;5051383;28;907;-68
2022/04/05 14:43:14;;;;;;;;;;;;;;;;;;5051768;28;783;-68
2022/04/05 14:45:41;;;;;;;;;;;;;;;;;;5050262;28;1056;-68
2022/04/05 14:48:07;;;;;;;;;;;;;;;;;;5050478;28;1316;-68
2022/04/05 14:50:34;;;;;;;;;;;;;;;;;;5050707;28;790;-68
2022/04/05 14:53:01;;;;;;;;;;;;;;;;;;5049456;28;1914;-67
2022/04/05 14:55:30;;;;;;;;;;;;;;;;;;5032656;28;1649;-67
2022/04/05 14:57:56;;;;;;;;;;;;;;;;;;5049821;28;1326;-68
2022/04/05 15:00:23;;;;;;;;;;;;;;;;;;5049664;28;1637;-67
2022/04/05 15:02:50;;;;;;;;;;;;;;;;;;5050078;28;1606;-67
2022/04/05 15:05:16;;;;;;;;;;;;;;;;;;5049677;28;1594;-66
2022/04/05 15:07:42;;;;;;;;;;;;;;;;;;5042619;28;1558;-68
2022/04/05 15:10:09;;;;;;;;;;;;;;;;;;5049850;28;1657;-67
2022/04/05 15:12:37;;;;;;;;;;;;;;;;;;5049057;28;1918;-68
2022/04/05 15:15:03;;;;;;;;;;;;;;;;;;5048435;28;1960;-66
2022/04/05 15:17:29;;;;;;;;;;;;;;;;;;5039108;28;2059;-68
2022/04/05 15:19:55;;;;;;;;;;;;;;;;;;5031248;28;1261;-67
2022/04/05 15:22:22;;;;;;;;;;;;;;;;;;5036772;28;1582;-67
2022/04/05 15:24:48;;;;;;;;;;;;;;;;;;5050647;28;716;-67
2022/04/05 15:27:14;;;;;;;;;;;;;;;;;;5053774;28;1387;-68
2022/04/05 15:29:42;;;;;;;;;;;;;;;;;;5053955;28;873;-67
2022/04/05 15:32:10;;;;;;;;;;;;;;;;;;5053946;28;1977;-67
2022/04/05 15:34:36;;;;;;;;;;;;;;;;;;5053772;28;1072;-68
2022/04/05 15:37:03;;;;;;;;;;;;;;;;;;5053562;28;1320;-67
2022/04/05 15:39:29;;;;;;;;;;;;;;;;;;5053400;28;1064;-67
2022/04/05 15:41:55;;;;;;;;;;;;;;;;;;5035316;28;1140;-67
2022/04/05 15:44:21;;;;;;;;;;;;;;;;;;5054248;28;768;-67
2022/04/05 15:46:50;;;;;;;;;;;;;;;;;;5052755;28;1413;-68
2022/04/05 15:49:16;;;;;;;;;;;;;;;;;;5055199;28;849;-68
2022/04/05 15:51:42;;;;;;;;;;;;;;;;;;5055200;28;1131;-66
2022/04/05 15:54:08;;;;;;;;;;;;;;;;;;5054067;28;1891;-68
2022/04/05 15:56:35;;;;;;;;;;;;;;;;;;5053246;28;1360;-68
2022/04/05 15:59:02;;;;;;;;;;;;;;;;;;5052770;28;1063;-68
2022/04/05 16:01:28;;;;;;;;;;;;;;;;;;5053373;28;841;-68
2022/04/05 16:03:55;;;;;;;;;;;;;;;;;;5052400;28;1546;-67
2022/04/05 16:06:21;;;;;;;;;;;;;;;;;;5049323;28;1637;-67
2022/04/05 16:08:49;;;;;;;;;;;;;;;;;;5031086;28;1578;-68
2022/04/05 16:11:15;;;;;;;;;;;;;;;;;;5043475;28;1567;-68
2022/04/05 16:13:41;;;;;;;;;;;;;;;;;;5032640;28;1977;-68
2022/04/05 16:16:09;;;;;;;;;;;;;;;;;;5050168;28;1605;-65
2022/04/05 16:18:35;;;;;;;;;;;;;;;;;;5050806;28;1374;-68
2022/04/05 16:21:03;;;;;;;;;;;;;;;;;;5049980;28;1558;-67
2022/04/05 16:23:29;;;;;;;;;;;;;;;;;;5046399;28;1403;-68
2022/04/05 16:25:55;;;;;;;;;;;;;;;;;;5050297;28;1550;-68
2022/04/05 16:28:21;;;;;;;;;;;;;;;;;;5050043;28;1347;-68
2022/04/05 16:30:47;;;;;;;;;;;;;;;;;;5050142;28;1543;-67
2022/04/05 16:33:13;;;;;;;;;;;;;;;;;;5049733;28;2343;-68
2022/04/05 16:35:41;;;;;;;;;;;;;;;;;;5049891;28;1455;-68
2022/04/05 16:38:08;;;;;;;;;;;;;;;;;;5041082;28;1420;-67
2022/04/05 16:40:34;;;;;;;;;;;;;;;;;;5043797;28;1170;-69
2022/04/05 16:43:01;;;;;;;;;;;;;;;;;;5038512;28;1408;-68
2022/04/05 16:45:28;;;;;;;;;;;;;;;;;;5048337;28;1502;-68
2022/04/05 16:47:54;;;;;;;;;;;;;;;;;;5049456;28;1566;-67
2022/04/05 16:50:20;;;;;;;;;;;;;;;;;;5048592;28;1080;-67
2022/04/05 16:52:46;;;;;;;;;;;;;;;;;;5049799;28;1975;-67
2022/04/05 16:55:14;;;;;;;;;;;;;;;;;;5050354;28;747;-68
2022/04/05 16:57:40;;;;;;;;;;;;;;;;;;5049836;28;1630;-67
2022/04/05 17:00:08;;;;;;;;;;;;;;;;;;5050238;28;1364;-67
2022/04/05 17:02:35;;;;;;;;;;;;;;;;;;5050103;28;1598;-67
2022/04/05 17:05:01;;;;;;;;;;;;;;;;;;5049961;28;1621;-67
2022/04/05 17:07:27;;;;;;;;;;;;;;;;;;5048424;28;1995;-67
2022/04/05 17:09:54;;;;;;;;;;;;;;;;;;5048117;28;1812;-67
2022/04/05 17:12:21;;;;;;;;;;;;;;;;;;5048209;28;1835;-67
2022/04/05 17:14:47;;;;;;;;;;;;;;;;;;5042845;28;1926;-67